Time;durP1;ratioP1;P1;durP2;ratioP2;P2;SDS_P1;SDS_P2;PMS_P1;PMS_P2;Temp;Humidity;BMP_temperature;BMP_pressure;BME280_temperature;BME280_humidity;BME280_pressure;Samples;Min_cycle;Max_cycle;Signal;HPM_P1;HPM_P2
2023/04/28 00:00:47;;;;;;;4.15;3.85;;;;;;;;;;5084915;28;20280;-67
2023/04/28 00:03:13;;;;;;;5.15;3.92;;;;;;;;;;5084888;28;20208;-67
2023/04/28 00:05:40;;;;;;;12.55;4.47;;;;;;;;;;5084444;28;20212;-67
2023/04/28 00:08:06;;;;;;;4.35;3.67;;;;;;;;;;5084573;28;20203;-67
2023/04/28 00:10:34;;;;;;;6.45;4.07;;;;;;;;;;5084578;28;20204;-67
2023/04/28 00:13:00;;;;;;;5.97;4.00;;;;;;;;;;5084478;28;20208;-67
2023/04/28 00:15:26;;;;;;;4.40;3.50;;;;;;;;;;5084383;28;20204;-67
2023/04/28 00:17:53;;;;;;;5.80;3.97;;;;;;;;;;5084172;28;20554;-67
2023/04/28 00:20:19;;;;;;;6.20;3.60;;;;;;;;;;5084317;28;20263;-67
2023/04/28 00:22:45;;;;;;;4.97;3.72;;;;;;;;;;5084445;28;20243;-67
2023/04/28 00:25:11;;;;;;;5.45;4.30;;;;;;;;;;5084427;28;20204;-67
2023/04/28 00:27:39;;;;;;;5.38;3.90;;;;;;;;;;5084125;28;20216;-67
2023/04/28 00:30:06;;;;;;;8.02;4.13;;;;;;;;;;5084551;28;20242;-67
2023/04/28 00:32:32;;;;;;;7.80;4.35;;;;;;;;;;5083070;28;20438;-67
2023/04/28 00:34:58;;;;;;;5.53;3.85;;;;;;;;;;5084231;28;20208;-67
2023/04/28 00:37:25;;;;;;;5.10;4.35;;;;;;;;;;5084038;28;20500;-67
2023/04/28 00:39:54;;;;;;;6.65;4.25;;;;;;;;;;5083921;28;20426;-67
2023/04/28 00:42:20;;;;;;;6.40;3.88;;;;;;;;;;5084308;28;20483;-67
2023/04/28 00:44:48;;;;;;;4.95;4.55;;;;;;;;;;5083796;28;20212;-67
2023/04/28 00:47:16;;;;;;;5.25;4.72;;;;;;;;;;5084050;28;20258;-67
2023/04/28 00:49:42;;;;;;;4.63;4.05;;;;;;;;;;5083807;28;20200;-67
2023/04/28 00:52:09;;;;;;;5.10;4.13;;;;;;;;;;5084018;28;20262;-67
2023/04/28 00:54:36;;;;;;;8.68;4.60;;;;;;;;;;5083976;28;20223;-68
2023/04/28 00:57:03;;;;;;;5.22;3.88;;;;;;;;;;5083966;28;20440;-67
2023/04/28 00:59:30;;;;;;;4.40;4.00;;;;;;;;;;5083354;28;20220;-67
2023/04/28 01:01:59;;;;;;;7.90;4.72;;;;;;;;;;5083507;28;20507;-67
2023/04/28 01:04:26;;;;;;;5.15;4.32;;;;;;;;;;5083771;28;20545;-67
2023/04/28 01:06:53;;;;;;;5.63;4.35;;;;;;;;;;5083732;28;20380;-67
2023/04/28 01:09:19;;;;;;;5.00;3.83;;;;;;;;;;5083364;28;20234;-67
2023/04/28 01:11:46;;;;;;;5.15;4.38;;;;;;;;;;5083299;28;20208;-67
2023/04/28 01:14:12;;;;;;;8.60;4.03;;;;;;;;;;5082820;28;20322;-67
2023/04/28 01:16:39;;;;;;;4.43;4.03;;;;;;;;;;5083191;28;20258;-67
2023/04/28 01:19:07;;;;;;;5.15;3.67;;;;;;;;;;5083295;28;20626;-67
2023/04/28 01:21:34;;;;;;;4.38;3.97;;;;;;;;;;5083176;28;20508;-67
2023/04/28 01:24:01;;;;;;;3.42;3.22;;;;;;;;;;5083163;28;20508;-67
2023/04/28 01:26:28;;;;;;;6.10;3.85;;;;;;;;;;5082932;28;20201;-67
2023/04/28 01:28:54;;;;;;;5.75;3.63;;;;;;;;;;5082931;28;20254;-67
2023/04/28 01:31:20;;;;;;;4.40;3.17;;;;;;;;;;5083220;28;20200;-67
2023/04/28 01:33:46;;;;;;;4.93;3.55;;;;;;;;;;5083074;28;20213;-67
2023/04/28 01:36:13;;;;;;;5.82;3.80;;;;;;;;;;5082890;28;20433;-67
2023/04/28 01:38:39;;;;;;;5.38;3.70;;;;;;;;;;5082401;28;20222;-67
2023/04/28 01:41:06;;;;;;;6.75;4.15;;;;;;;;;;5083343;28;20426;-67
2023/04/28 01:43:33;;;;;;;9.00;4.10;;;;;;;;;;5082474;28;20382;-67
2023/04/28 01:45:59;;;;;;;4.40;4.00;;;;;;;;;;5082704;28;20288;-67
2023/04/28 01:48:25;;;;;;;4.35;4.03;;;;;;;;;;5082542;28;20322;-67
2023/04/28 01:50:51;;;;;;;8.75;4.10;;;;;;;;;;5082491;28;20527;-67
2023/04/28 01:53:19;;;;;;;5.18;3.78;;;;;;;;;;5082450;28;20205;-67
2023/04/28 01:55:45;;;;;;;4.32;3.88;;;;;;;;;;5082590;28;20200;-67
2023/04/28 01:58:13;;;;;;;5.80;4.50;;;;;;;;;;5082401;28;20318;-67
2023/04/28 02:00:39;;;;;;;4.20;3.92;;;;;;;;;;5082367;28;20262;-68
2023/04/28 02:03:05;;;;;;;4.60;4.20;;;;;;;;;;5082382;28;20257;-67
2023/04/28 02:05:32;;;;;;;4.63;4.03;;;;;;;;;;5082207;28;20201;-67
2023/04/28 02:07:58;;;;;;;4.30;3.90;;;;;;;;;;5082205;28;20207;-67
2023/04/28 02:10:24;;;;;;;5.70;4.60;;;;;;;;;;5082462;28;20230;-67
2023/04/28 02:12:50;;;;;;;4.85;4.45;;;;;;;;;;5082362;28;20204;-67
2023/04/28 02:15:18;;;;;;;5.35;4.53;;;;;;;;;;5082394;28;20205;-67
2023/04/28 02:17:44;;;;;;;7.93;5.05;;;;;;;;;;5082121;28;20368;-67
2023/04/28 02:20:13;;;;;;;6.15;4.43;;;;;;;;;;5081963;28;20238;-67
2023/04/28 02:22:39;;;;;;;6.30;4.93;;;;;;;;;;5082269;28;20215;-67
2023/04/28 02:25:06;;;;;;;5.00;4.50;;;;;;;;;;5082428;28;20208;-67
2023/04/28 02:27:32;;;;;;;7.70;4.70;;;;;;;;;;5081915;28;20216;-67
2023/04/28 02:29:58;;;;;;;6.75;5.20;;;;;;;;;;5082018;28;20500;-68
2023/04/28 02:32:26;;;;;;;8.68;4.88;;;;;;;;;;5082126;28;20527;-68
2023/04/28 02:34:53;;;;;;;5.72;4.80;;;;;;;;;;5081842;28;20200;-68
2023/04/28 02:37:19;;;;;;;7.25;4.97;;;;;;;;;;5082230;28;20196;-68
2023/04/28 02:39:45;;;;;;;5.85;5.15;;;;;;;;;;5081645;28;20227;-68
2023/04/28 02:42:12;;;;;;;9.00;5.50;;;;;;;;;;5082224;28;20196;-68
2023/04/28 02:44:38;;;;;;;5.38;4.97;;;;;;;;;;5081861;28;20392;-68
2023/04/28 02:47:04;;;;;;;5.78;4.78;;;;;;;;;;5081972;28;20200;-68
2023/04/28 02:49:32;;;;;;;6.75;4.90;;;;;;;;;;5081480;28;20200;-68
2023/04/28 02:51:58;;;;;;;6.57;4.20;;;;;;;;;;5082104;28;20515;-68
2023/04/28 02:54:27;;;;;;;10.13;4.95;;;;;;;;;;5082125;28;20205;-68
2023/04/28 02:56:53;;;;;;;7.10;4.38;;;;;;;;;;5084339;28;20203;-68
2023/04/28 02:59:20;;;;;;;6.38;5.07;;;;;;;;;;5085885;28;20411;-68
2023/04/28 03:01:46;;;;;;;8.40;4.40;;;;;;;;;;5085987;28;20228;-68
2023/04/28 03:04:13;;;;;;;8.27;4.72;;;;;;;;;;5085805;28;20212;-68
2023/04/28 03:06:41;;;;;;;6.05;4.60;;;;;;;;;;5086098;28;20200;-68
2023/04/28 03:09:07;;;;;;;6.97;4.68;;;;;;;;;;5085694;28;20200;-68
2023/04/28 03:11:33;;;;;;;5.20;4.50;;;;;;;;;;5085747;28;20219;-68
2023/04/28 03:14:00;;;;;;;7.63;5.03;;;;;;;;;;5085685;28;20200;-68
2023/04/28 03:16:26;;;;;;;8.32;5.82;;;;;;;;;;5085579;28;20196;-68
2023/04/28 03:18:52;;;;;;;7.70;5.57;;;;;;;;;;5085383;28;20204;-68
2023/04/28 03:21:18;;;;;;;8.00;6.38;;;;;;;;;;5085453;28;20197;-68
2023/04/28 03:23:46;;;;;;;7.55;5.57;;;;;;;;;;5085394;28;20235;-68
2023/04/28 03:26:12;;;;;;;6.35;5.25;;;;;;;;;;5085385;28;20234;-68
2023/04/28 03:28:38;;;;;;;6.38;5.20;;;;;;;;;;5085053;28;20409;-68
2023/04/28 03:31:05;;;;;;;6.47;5.10;;;;;;;;;;5085202;28;20371;-68
2023/04/28 03:33:31;;;;;;;4.88;4.47;;;;;;;;;;5085479;28;20626;-68
2023/04/28 03:35:57;;;;;;;6.40;5.10;;;;;;;;;;5085322;28;20396;-68
2023/04/28 03:38:23;;;;;;;5.78;4.82;;;;;;;;;;5085090;28;20511;-68
2023/04/28 03:40:51;;;;;;;5.28;4.78;;;;;;;;;;5085225;28;20273;-68
2023/04/28 03:43:17;;;;;;;5.03;4.63;;;;;;;;;;5085291;28;20204;-68
2023/04/28 03:45:44;;;;;;;6.00;4.45;;;;;;;;;;5084957;28;20196;-68
2023/04/28 03:48:10;;;;;;;5.30;4.80;;;;;;;;;;5085038;28;20243;-68
2023/04/28 03:50:36;;;;;;;4.88;4.40;;;;;;;;;;5084766;28;20197;-68
2023/04/28 03:53:03;;;;;;;7.97;5.10;;;;;;;;;;5084981;28;20204;-68
2023/04/28 03:55:30;;;;;;;6.70;5.10;;;;;;;;;;5084973;28;20207;-68
2023/04/28 03:57:57;;;;;;;6.63;5.53;;;;;;;;;;5084594;28;20427;-68
2023/04/28 04:00:24;;;;;;;6.93;5.22;;;;;;;;;;5084666;28;20456;-68
2023/04/28 04:02:50;;;;;;;5.88;4.90;;;;;;;;;;5084770;28;20200;-68
2023/04/28 04:05:16;;;;;;;6.95;5.55;;;;;;;;;;5084890;28;20262;-68
2023/04/28 04:07:42;;;;;;;5.20;4.80;;;;;;;;;;5084538;28;20203;-68
2023/04/28 04:10:09;;;;;;;5.03;4.63;;;;;;;;;;5084524;28;20230;-68
2023/04/28 04:12:35;;;;;;;5.50;5.20;;;;;;;;;;5084413;28;20242;-68
2023/04/28 04:15:03;;;;;;;5.97;5.40;;;;;;;;;;5084519;28;20242;-68
2023/04/28 04:17:29;;;;;;;5.43;5.03;;;;;;;;;;5084658;28;20201;-68
2023/04/28 04:19:56;;;;;;;6.30;5.72;;;;;;;;;;5084207;28;20255;-68
2023/04/28 04:22:22;;;;;;;5.97;5.38;;;;;;;;;;5084510;28;20197;-68
2023/04/28 04:24:48;;;;;;;6.20;5.60;;;;;;;;;;5084257;28;20511;-68
2023/04/28 04:27:14;;;;;;;5.90;5.32;;;;;;;;;;5084047;28;20238;-68
2023/04/28 04:29:41;;;;;;;6.05;5.45;;;;;;;;;;5084201;28;20192;-68
2023/04/28 04:32:08;;;;;;;5.03;4.57;;;;;;;;;;5084212;28;20250;-68
2023/04/28 04:34:35;;;;;;;6.50;5.90;;;;;;;;;;5084276;28;20200;-68
2023/04/28 04:37:01;;;;;;;6.68;5.65;;;;;;;;;;5084179;28;20196;-68
2023/04/28 04:39:27;;;;;;;6.47;5.32;;;;;;;;;;5084027;28;20197;-68
2023/04/28 04:41:54;;;;;;;7.63;6.18;;;;;;;;;;5084030;28;20204;-68
2023/04/28 04:44:20;;;;;;;9.52;6.18;;;;;;;;;;5084222;28;20196;-68
2023/04/28 04:46:46;;;;;;;7.15;5.40;;;;;;;;;;5084056;28;20503;-68
2023/04/28 04:49:14;;;;;;;5.97;5.47;;;;;;;;;;5083715;28;20241;-68
2023/04/28 04:51:40;;;;;;;6.32;5.72;;;;;;;;;;5084183;28;20201;-68
2023/04/28 04:54:07;;;;;;;7.35;5.80;;;;;;;;;;5083967;28;20504;-68
2023/04/28 04:56:33;;;;;;;8.35;6.10;;;;;;;;;;5084218;28;20508;-69
2023/04/28 04:58:59;;;;;;;6.00;5.40;;;;;;;;;;5083518;28;20197;-68
2023/04/28 05:01:26;;;;;;;5.95;5.40;;;;;;;;;;5083700;28;20239;-68
2023/04/28 05:03:52;;;;;;;8.48;6.00;;;;;;;;;;5083583;28;20200;-68
2023/04/28 05:06:20;;;;;;;8.63;6.20;;;;;;;;;;5083719;28;20197;-68
2023/04/28 05:08:46;;;;;;;6.95;6.35;;;;;;;;;;5083609;28;20197;-68
2023/04/28 05:11:12;;;;;;;9.85;6.45;;;;;;;;;;5083425;28;20198;-68
2023/04/28 05:13:39;;;;;;;14.00;6.35;;;;;;;;;;5083401;28;20200;-68
2023/04/28 05:16:06;;;;;;;7.18;6.55;;;;;;;;;;5083328;28;20197;-68
2023/04/28 05:18:32;;;;;;;7.28;5.97;;;;;;;;;;5082580;28;20200;-68
2023/04/28 05:20:58;;;;;;;11.30;7.13;;;;;;;;;;5083163;28;20228;-68
2023/04/28 05:23:26;;;;;;;8.20;6.82;;;;;;;;;;5083131;28;20205;-68
2023/04/28 05:25:52;;;;;;;8.73;7.80;;;;;;;;;;5083376;28;20540;-68
2023/04/28 05:28:19;;;;;;;9.40;7.15;;;;;;;;;;5083069;28;20224;-69
2023/04/28 05:30:45;;;;;;;9.85;7.30;;;;;;;;;;5082947;28;20386;-69
2023/04/28 05:33:11;;;;;;;11.25;7.50;;;;;;;;;;5082856;28;20216;-69
2023/04/28 05:35:37;;;;;;;10.25;7.30;;;;;;;;;;5082908;28;20235;-67
2023/04/28 05:38:04;;;;;;;11.93;8.10;;;;;;;;;;5082492;28;20484;-67
2023/04/28 05:40:31;;;;;;;11.00;8.23;;;;;;;;;;5082787;28;20220;-67
2023/04/28 05:42:58;;;;;;;9.88;7.00;;;;;;;;;;5082554;28;20238;-67
2023/04/28 05:45:24;;;;;;;11.52;7.40;;;;;;;;;;5082814;28;20395;-67
2023/04/28 05:47:51;;;;;;;10.95;6.80;;;;;;;;;;5082536;28;20258;-67
2023/04/28 05:50:17;;;;;;;10.55;7.00;;;;;;;;;;5082512;28;20192;-67
2023/04/28 05:52:43;;;;;;;10.15;7.95;;;;;;;;;;5082357;28;20197;-68
2023/04/28 05:55:10;;;;;;;9.98;7.43;;;;;;;;;;5082618;28;20242;-68
2023/04/28 05:57:38;;;;;;;9.18;7.55;;;;;;;;;;5082372;28;20208;-68
2023/04/28 06:00:04;;;;;;;9.35;6.80;;;;;;;;;;5082087;28;20456;-68
2023/04/28 06:02:30;;;;;;;9.00;6.72;;;;;;;;;;5082415;28;20231;-68
2023/04/28 06:04:57;;;;;;;9.68;7.28;;;;;;;;;;5082450;28;20200;-61
2023/04/28 06:07:23;;;;;;;15.38;7.20;;;;;;;;;;5082512;28;20197;-61
2023/04/28 06:09:49;;;;;;;8.55;6.47;;;;;;;;;;5078668;28;20226;-60
2023/04/28 06:12:15;;;;;;;12.75;7.10;;;;;;;;;;5062840;28;20270;-60
2023/04/28 06:14:43;;;;;;;12.00;7.63;;;;;;;;;;5072702;28;20464;-60
2023/04/28 06:17:09;;;;;;;12.35;7.40;;;;;;;;;;5063535;28;20232;-61
2023/04/28 06:19:35;;;;;;;12.18;8.15;;;;;;;;;;5065184;28;20213;-61
2023/04/28 06:22:02;;;;;;;9.95;7.80;;;;;;;;;;5067263;28;20224;-61
2023/04/28 06:24:28;;;;;;;7.95;6.63;;;;;;;;;;5065096;28;20216;-61
2023/04/28 06:26:55;;;;;;;9.52;7.28;;;;;;;;;;5067428;28;20220;-61
2023/04/28 06:29:22;;;;;;;10.77;7.65;;;;;;;;;;5072306;28;20208;-61
2023/04/28 06:31:51;;;;;;;8.23;6.93;;;;;;;;;;5073209;28;20197;-60
2023/04/28 06:34:17;;;;;;;9.15;7.70;;;;;;;;;;5074231;28;20214;-61
2023/04/28 06:36:43;;;;;;;8.38;7.57;;;;;;;;;;5072351;28;20214;-60
2023/04/28 06:39:10;;;;;;;12.10;7.65;;;;;;;;;;5075108;28;20201;-60
2023/04/28 06:41:36;;;;;;;9.55;7.68;;;;;;;;;;5075265;28;20224;-60
2023/04/28 06:44:02;;;;;;;11.20;7.32;;;;;;;;;;5075067;28;20212;-60
2023/04/28 06:46:28;;;;;;;8.50;7.18;;;;;;;;;;5075152;28;20250;-60
2023/04/28 06:48:56;;;;;;;9.70;6.85;;;;;;;;;;5074333;28;20239;-60
2023/04/28 06:51:22;;;;;;;9.27;6.80;;;;;;;;;;5075912;28;20219;-60
2023/04/28 06:53:51;;;;;;;7.57;6.78;;;;;;;;;;5075288;28;20223;-60
2023/04/28 06:56:18;;;;;;;10.80;7.32;;;;;;;;;;5075125;28;20275;-61
2023/04/28 06:58:44;;;;;;;10.60;7.72;;;;;;;;;;5074572;28;20544;-60
2023/04/28 07:01:11;;;;;;;9.57;7.95;;;;;;;;;;5074314;28;20239;-60
2023/04/28 07:03:38;;;;;;;9.63;7.35;;;;;;;;;;5075692;28;20205;-61
2023/04/28 07:06:06;;;;;;;11.07;7.95;;;;;;;;;;5075164;28;20223;-59
2023/04/28 07:08:32;;;;;;;10.30;8.18;;;;;;;;;;5075888;28;20204;-59
2023/04/28 07:10:58;;;;;;;8.50;7.70;;;;;;;;;;5076855;28;20246;-59
2023/04/28 07:13:25;;;;;;;11.65;7.95;;;;;;;;;;5076826;28;20212;-59
2023/04/28 07:15:51;;;;;;;14.63;7.75;;;;;;;;;;5075766;28;20220;-59
2023/04/28 07:18:17;;;;;;;10.57;7.45;;;;;;;;;;5073993;28;20216;-59
2023/04/28 07:20:43;;;;;;;9.20;7.47;;;;;;;;;;5075380;28;20305;-59
2023/04/28 07:23:11;;;;;;;15.77;8.38;;;;;;;;;;5074888;28;20451;-59
2023/04/28 07:25:38;;;;;;;15.20;8.15;;;;;;;;;;5075616;28;20450;-60
2023/04/28 07:28:05;;;;;;;14.98;9.18;;;;;;;;;;5075008;28;20292;-60
2023/04/28 07:30:31;;;;;;;12.93;8.02;;;;;;;;;;5075375;28;20208;-60
2023/04/28 07:32:58;;;;;;;13.90;8.32;;;;;;;;;;5075986;28;20213;-60
2023/04/28 07:35:24;;;;;;;12.30;8.15;;;;;;;;;;5075151;28;20208;-60
2023/04/28 07:37:50;;;;;;;12.82;8.55;;;;;;;;;;5074596;28;20209;-60
2023/04/28 07:40:18;;;;;;;11.18;7.88;;;;;;;;;;5074997;28;20215;-60
2023/04/28 07:42:45;;;;;;;10.77;8.70;;;;;;;;;;5077702;28;20247;-60
2023/04/28 07:45:11;;;;;;;13.52;9.60;;;;;;;;;;5078788;28;20543;-63
2023/04/28 07:47:37;;;;;;;15.38;8.95;;;;;;;;;;5079162;28;20430;-61
2023/04/28 07:50:05;;;;;;;11.75;8.75;;;;;;;;;;5078986;28;20573;-60
2023/04/28 07:52:31;;;;;;;10.88;8.35;;;;;;;;;;5078741;28;20508;-59
2023/04/28 07:55:01;;;;;;;12.23;8.73;;;;;;;;;;5079697;28;20216;-60
2023/04/28 07:57:30;;;;;;;11.15;8.57;;;;;;;;;;5078907;28;20224;-60
2023/04/28 07:59:56;;;;;;;14.98;9.02;;;;;;;;;;5078692;28;20591;-60
2023/04/28 08:02:22;;;;;;;16.92;9.93;;;;;;;;;;5078947;28;20605;-59
2023/04/28 08:04:49;;;;;;;13.43;8.70;;;;;;;;;;5078295;28;20539;-60
2023/04/28 08:07:15;;;;;;;14.45;8.63;;;;;;;;;;5078604;28;20481;-60
2023/04/28 08:09:45;;;;;;;11.27;8.38;;;;;;;;;;5079172;28;20209;-60
2023/04/28 08:12:12;;;;;;;12.55;8.27;;;;;;;;;;5078299;28;20204;-60
2023/04/28 08:14:39;;;;;;;9.23;8.15;;;;;;;;;;5078489;28;20419;-60
2023/04/28 08:17:05;;;;;;;14.50;9.50;;;;;;;;;;5078568;28;20439;-60
2023/04/28 08:19:32;;;;;;;12.45;9.02;;;;;;;;;;5078040;28;20212;-61
2023/04/28 08:21:58;;;;;;;8.05;7.25;;;;;;;;;;5077738;28;20544;-60
2023/04/28 08:24:25;;;;;;;9.02;8.13;;;;;;;;;;5078098;28;20564;-60
2023/04/28 08:26:51;;;;;;;10.52;8.95;;;;;;;;;;5077756;28;20212;-60
2023/04/28 08:29:17;;;;;;;9.40;7.65;;;;;;;;;;5078116;28;20217;-60
2023/04/28 08:31:45;;;;;;;9.80;7.30;;;;;;;;;;5078559;28;20257;-61
2023/04/28 08:34:11;;;;;;;7.82;6.57;;;;;;;;;;5078073;28;20247;-61
2023/04/28 08:36:37;;;;;;;7.50;6.80;;;;;;;;;;5078023;28;20204;-60
2023/04/28 08:39:07;;;;;;;6.68;6.18;;;;;;;;;;5077200;28;20212;-60
2023/04/28 08:41:34;;;;;;;8.05;6.80;;;;;;;;;;5077567;28;20418;-61
2023/04/28 08:44:00;;;;;;;7.35;6.55;;;;;;;;;;5078486;28;20561;-61
2023/04/28 08:46:27;;;;;;;6.63;6.03;;;;;;;;;;5078104;28;20451;-61
2023/04/28 08:48:59;;;;;;;10.30;6.57;;;;;;;;;;5078103;28;20208;-60
2023/04/28 08:51:25;;;;;;;8.52;6.22;;;;;;;;;;5077961;28;20205;-60
2023/04/28 08:53:53;;;;;;;8.35;6.10;;;;;;;;;;5076176;28;20209;-60
2023/04/28 08:56:22;;;;;;;6.50;5.55;;;;;;;;;;5077454;28;20318;-60
2023/04/28 08:58:49;;;;;;;6.95;6.25;;;;;;;;;;5077374;28;20220;-60
2023/04/28 09:01:15;;;;;;;6.35;5.78;;;;;;;;;;5077035;28;20597;-60
2023/04/28 09:03:41;;;;;;;6.30;5.70;;;;;;;;;;5077826;28;20523;-60
2023/04/28 09:06:09;;;;;;;6.45;4.70;;;;;;;;;;5077814;28;20413;-60
2023/04/28 09:08:35;;;;;;;5.95;5.35;;;;;;;;;;5077428;28;20741;-61
2023/04/28 09:11:08;;;;;;;6.00;5.10;;;;;;;;;;5078249;28;20570;-61
2023/04/28 09:13:34;;;;;;;5.68;5.18;;;;;;;;;;5077496;28;20258;-61
2023/04/28 09:16:01;;;;;;;6.25;5.00;;;;;;;;;;5077865;28;20216;-59
2023/04/28 09:18:28;;;;;;;5.85;5.25;;;;;;;;;;5077943;28;20444;-61
2023/04/28 09:21:02;;;;;;;6.20;5.70;;;;;;;;;;5077775;28;20212;-60
2023/04/28 09:23:29;;;;;;;8.27;5.28;;;;;;;;;;5076405;28;20805;-61
2023/04/28 09:25:57;;;;;;;6.88;6.18;;;;;;;;;;5076083;28;20401;-62
2023/04/28 09:28:23;;;;;;;7.45;6.68;;;;;;;;;;5076911;28;20224;-61
2023/04/28 09:30:49;;;;;;;9.63;6.65;;;;;;;;;;5077685;28;20212;-61
2023/04/28 09:33:16;;;;;;;8.68;7.78;;;;;;;;;;5076074;28;20520;-61
2023/04/28 09:35:44;;;;;;;12.63;9.95;;;;;;;;;;5077212;28;20209;-61
2023/04/28 09:38:10;;;;;;;12.73;8.98;;;;;;;;;;5077388;28;20476;-61
2023/04/28 09:40:51;;;;;;;11.73;9.52;;;;;;;;;;5077277;28;20460;-61
2023/04/28 09:43:27;;;;;;;10.88;8.70;;;;;;;;;;5077607;28;20228;-61
2023/04/28 09:45:53;;;;;;;10.75;8.55;;;;;;;;;;5076624;28;20211;-60
2023/04/28 09:48:26;;;;;;;11.95;7.70;;;;;;;;;;5075943;28;20481;-61
2023/04/28 09:50:53;;;;;;;6.68;6.07;;;;;;;;;;5077162;28;20213;-61
2023/04/28 09:53:21;;;;;;;10.25;7.13;;;;;;;;;;5072591;28;20529;-61
2023/04/28 09:55:48;;;;;;;9.30;7.57;;;;;;;;;;5075643;28;20536;-61
2023/04/28 09:58:16;;;;;;;8.52;7.72;;;;;;;;;;5075217;28;20266;-61
2023/04/28 10:00:43;;;;;;;7.70;6.90;;;;;;;;;;5076165;28;20442;-60
2023/04/28 10:03:10;;;;;;;8.20;7.43;;;;;;;;;;5075791;28;20228;-61
2023/04/28 10:05:37;;;;;;;7.65;7.05;;;;;;;;;;5076489;28;20208;-61
2023/04/28 10:08:03;;;;;;;7.70;6.90;;;;;;;;;;5075602;28;20274;-61
2023/04/28 10:10:30;;;;;;;7.90;6.82;;;;;;;;;;5077552;28;20212;-61
2023/04/28 10:12:56;;;;;;;9.15;6.28;;;;;;;;;;5076972;28;20527;-62
2023/04/28 10:15:24;;;;;;;7.05;6.45;;;;;;;;;;5076749;28;20431;-62
2023/04/28 10:17:51;;;;;;;6.60;6.07;;;;;;;;;;5076684;28;20671;-61
2023/04/28 10:20:20;;;;;;;5.28;4.88;;;;;;;;;;5076840;28;20279;-61
2023/04/28 10:22:53;;;;;;;8.77;5.68;;;;;;;;;;5075466;28;20301;-62
2023/04/28 10:25:26;;;;;;;5.82;5.20;;;;;;;;;;5076333;28;20519;-61
2023/04/28 10:27:53;;;;;;;7.18;5.07;;;;;;;;;;5076761;28;20220;-61
2023/04/28 10:30:20;;;;;;;5.80;5.22;;;;;;;;;;5076803;28;20250;-61
2023/04/28 10:32:48;;;;;;;4.85;4.55;;;;;;;;;;5076158;28;20200;-61
2023/04/28 10:35:35;;;;;;;5.15;4.80;;;;;;;;;;5075276;28;20429;-61
2023/04/28 10:38:05;;;;;;;5.60;4.35;;;;;;;;;;5073147;28;20216;-61
2023/04/28 10:40:31;;;;;;;5.38;4.57;;;;;;;;;;5074974;28;20208;-61
2023/04/28 10:42:58;;;;;;;6.03;5.35;;;;;;;;;;5076525;28;20239;-61
2023/04/28 10:45:54;;;;;;;4.78;4.32;;;;;;;;;;5076426;28;20258;-61
2023/04/28 10:48:23;;;;;;;5.20;4.80;;;;;;;;;;5022244;28;20510;-61
2023/04/28 10:51:12;;;;;;;7.40;4.55;;;;;;;;;;5058665;28;20460;-61
2023/04/28 10:53:57;;;;;;;4.75;4.30;;;;;;;;;;5074098;28;20216;-61
2023/04/28 10:56:25;;;;;;;7.93;4.45;;;;;;;;;;5067314;28;20397;-61
2023/04/28 10:58:52;;;;;;;5.30;4.53;;;;;;;;;;5075803;28;20234;-60
2023/04/28 11:01:25;;;;;;;5.38;4.85;;;;;;;;;;5075141;28;20208;-61
2023/04/28 11:03:58;;;;;;;4.47;4.15;;;;;;;;;;5074425;28;20465;-61
2023/04/28 11:06:26;;;;;;;5.13;4.45;;;;;;;;;;5073056;28;20267;-61
2023/04/28 11:08:54;;;;;;;3.58;3.28;;;;;;;;;;5075079;28;20254;-61
2023/04/28 11:11:21;;;;;;;3.10;2.80;;;;;;;;;;5075502;28;20208;-61
2023/04/28 11:13:48;;;;;;;2.67;2.47;;;;;;;;;;5075952;28;20216;-61
2023/04/28 11:16:16;;;;;;;3.63;3.20;;;;;;;;;;5075345;28;20224;-61
2023/04/28 11:18:49;;;;;;;3.47;3.28;;;;;;;;;;5079680;28;20214;-61
2023/04/28 11:21:17;;;;;;;2.65;2.55;;;;;;;;;;5078490;28;20212;-61
2023/04/28 11:23:44;;;;;;;3.33;3.13;;;;;;;;;;5079469;28;20212;-61
2023/04/28 11:26:10;;;;;;;4.90;2.80;;;;;;;;;;5080076;28;20212;-62
2023/04/28 11:28:36;;;;;;;3.28;2.78;;;;;;;;;;5079591;28;20574;-62
2023/04/28 11:31:12;;;;;;;2.55;1.70;;;;;;;;;;5079999;28;20281;-62
2023/04/28 11:33:39;;;;;;;1.77;1.65;;;;;;;;;;5080706;28;20504;-62
2023/04/28 11:36:06;;;;;;;3.55;1.80;;;;;;;;;;5078548;28;20577;-61
2023/04/28 11:38:43;;;;;;;3.13;2.17;;;;;;;;;;5078264;28;20212;-61
2023/04/28 11:41:10;;;;;;;2.30;2.08;;;;;;;;;;5079111;28;20212;-61
2023/04/28 11:43:36;;;;;;;4.00;2.47;;;;;;;;;;5079986;28;20224;-60
2023/04/28 11:46:02;;;;;;;2.00;2.00;;;;;;;;;;5078924;28;20612;-60
2023/04/28 11:48:28;;;;;;;2.10;2.00;;;;;;;;;;5078838;28;20325;-60
2023/04/28 11:50:55;;;;;;;1.85;1.75;;;;;;;;;;5077791;28;20452;-61
2023/04/28 11:53:22;;;;;;;1.60;1.48;;;;;;;;;;5077864;28;20204;-61
2023/04/28 11:55:49;;;;;;;1.77;1.60;;;;;;;;;;5078782;28;20234;-60
2023/04/28 11:58:21;;;;;;;1.60;1.60;;;;;;;;;;5078382;28;20315;-61
2023/04/28 12:01:02;;;;;;;1.83;1.70;;;;;;;;;;5078782;28;20219;-61
2023/04/28 12:03:28;;;;;;;1.60;1.60;;;;;;;;;;5076475;28;20246;-61
2023/04/28 12:05:54;;;;;;;1.90;1.80;;;;;;;;;;5078364;28;21126;-61
2023/04/28 12:08:27;;;;;;;2.03;1.90;;;;;;;;;;5078442;28;20559;-61
2023/04/28 12:11:09;;;;;;;2.22;1.70;;;;;;;;;;5078792;28;20208;-61
2023/04/28 12:13:37;;;;;;;3.25;1.40;;;;;;;;;;5071537;28;20523;-61
2023/04/28 12:16:04;;;;;;;1.30;1.30;;;;;;;;;;5078279;28;20216;-61
2023/04/28 12:18:31;;;;;;;1.52;1.48;;;;;;;;;;5079271;28;20287;-62
2023/04/28 12:20:57;;;;;;;1.70;1.60;;;;;;;;;;5079167;28;20270;-61
2023/04/28 12:23:28;;;;;;;1.63;1.52;;;;;;;;;;5077990;28;20220;-62
2023/04/28 12:25:56;;;;;;;1.42;1.42;;;;;;;;;;5079414;28;20274;-62
2023/04/28 12:28:24;;;;;;;1.48;1.45;;;;;;;;;;5077214;28;20254;-62
2023/04/28 12:30:50;;;;;;;1.42;1.42;;;;;;;;;;5079655;28;20603;-62
2023/04/28 12:33:23;;;;;;;1.50;1.40;;;;;;;;;;5078407;28;20215;-61
2023/04/28 12:35:50;;;;;;;1.20;1.20;;;;;;;;;;5078245;28;20239;-61
2023/04/28 12:38:17;;;;;;;2.88;1.40;;;;;;;;;;5077792;28;20551;-61
2023/04/28 12:40:43;;;;;;;1.30;1.25;;;;;;;;;;5078073;28;20204;-60
2023/04/28 12:43:09;;;;;;;2.08;1.30;;;;;;;;;;5077974;28;20228;-61
2023/04/28 12:45:38;;;;;;;1.45;1.38;;;;;;;;;;5078609;28;20566;-61
2023/04/28 12:48:04;;;;;;;2.38;2.28;;;;;;;;;;5077998;28;20211;-61
2023/04/28 12:50:31;;;;;;;1.52;1.38;;;;;;;;;;5078377;28;20208;-61
2023/04/28 12:52:58;;;;;;;0.60;0.60;;;;;;;;;;5077078;28;20212;-61
2023/04/28 12:55:24;;;;;;;0.95;0.73;;;;;;;;;;5078520;28;20228;-60
2023/04/28 12:57:51;;;;;;;0.80;0.80;;;;;;;;;;5078037;28;20539;-60
2023/04/28 13:00:21;;;;;;;1.38;1.02;;;;;;;;;;5078129;28;20550;-61
2023/04/28 13:02:49;;;;;;;1.13;1.02;;;;;;;;;;5078505;28;20223;-61
2023/04/28 13:05:15;;;;;;;0.70;0.70;;;;;;;;;;5078028;28;20570;-61
2023/04/28 13:07:42;;;;;;;1.45;0.70;;;;;;;;;;5076406;28;20321;-61
2023/04/28 13:10:08;;;;;;;0.85;0.50;;;;;;;;;;5078012;28;20511;-61
2023/04/28 13:12:35;;;;;;;0.50;0.50;;;;;;;;;;5077514;28;20418;-60
2023/04/28 13:15:01;;;;;;;1.38;0.70;;;;;;;;;;5076936;28;20234;-60
2023/04/28 13:17:27;;;;;;;0.60;0.60;;;;;;;;;;5077317;28;20243;-61
2023/04/28 13:19:55;;;;;;;1.10;0.70;;;;;;;;;;5077857;28;20213;-61
2023/04/28 13:22:22;;;;;;;1.05;0.70;;;;;;;;;;5076740;28;20228;-60
2023/04/28 13:24:48;;;;;;;0.80;0.80;;;;;;;;;;5076680;28;20212;-61
2023/04/28 13:27:14;;;;;;;0.60;0.60;;;;;;;;;;5076791;28;20228;-61
2023/04/28 13:29:40;;;;;;;0.98;0.60;;;;;;;;;;5076153;28;20208;-60
2023/04/28 13:32:07;;;;;;;0.98;0.70;;;;;;;;;;5075842;28;20334;-61
2023/04/28 13:34:33;;;;;;;3.78;0.77;;;;;;;;;;5078301;28;20208;-61
2023/04/28 13:37:01;;;;;;;0.85;0.63;;;;;;;;;;5077069;28;20422;-62
2023/04/28 13:39:27;;;;;;;1.77;1.02;;;;;;;;;;5077046;28;20528;-62
2023/04/28 13:41:53;;;;;;;1.90;0.73;;;;;;;;;;5078647;28;20216;-61
2023/04/28 13:44:20;;;;;;;0.77;0.77;;;;;;;;;;5083071;28;20220;-61
2023/04/28 13:46:46;;;;;;;0.85;0.77;;;;;;;;;;5083300;28;20254;-62
2023/04/28 13:49:12;;;;;;;0.63;0.63;;;;;;;;;;5082806;28;20200;-62
2023/04/28 13:51:38;;;;;;;0.95;0.60;;;;;;;;;;5083068;28;20201;-63
2023/04/28 13:54:09;;;;;;;0.60;0.40;;;;;;;;;;5082755;28;20215;-62
2023/04/28 13:56:36;;;;;;;0.45;0.45;;;;;;;;;;5075194;28;20520;-62
2023/04/28 13:59:02;;;;;;;2.70;0.70;;;;;;;;;;5082892;28;20539;-62
2023/04/28 14:01:29;;;;;;;0.70;0.70;;;;;;;;;;5082674;28;20230;-63
2023/04/28 14:03:55;;;;;;;0.50;0.50;;;;;;;;;;5082576;28;20227;-62
2023/04/28 14:06:21;;;;;;;2.10;0.47;;;;;;;;;;5082627;28;20200;-62
2023/04/28 14:08:48;;;;;;;1.15;0.55;;;;;;;;;;5082414;28;20201;-62
2023/04/28 14:11:15;;;;;;;1.42;0.50;;;;;;;;;;5082520;28;20204;-62
2023/04/28 14:13:42;;;;;;;0.30;0.30;;;;;;;;;;5082574;28;20200;-62
2023/04/28 14:16:08;;;;;;;2.65;0.40;;;;;;;;;;5082623;28;20267;-62
2023/04/28 14:18:34;;;;;;;0.47;0.30;;;;;;;;;;5074189;28;20203;-62
2023/04/28 14:21:06;;;;;;;0.60;0.60;;;;;;;;;;5082254;28;20429;-62
2023/04/28 14:23:32;;;;;;;0.50;0.50;;;;;;;;;;5082258;28;20375;-62
2023/04/28 14:25:59;;;;;;;1.90;0.60;;;;;;;;;;5082383;28;20200;-62
2023/04/28 14:28:27;;;;;;;0.60;0.60;;;;;;;;;;5081963;28;20266;-62
2023/04/28 14:30:54;;;;;;;1.00;0.60;;;;;;;;;;5082348;28;20215;-62
2023/04/28 14:33:20;;;;;;;2.28;0.88;;;;;;;;;;5082204;28;20205;-62
2023/04/28 14:35:46;;;;;;;1.17;0.95;;;;;;;;;;5082068;28;20204;-62
2023/04/28 14:38:13;;;;;;;0.93;0.80;;;;;;;;;;5082129;28;20243;-62
2023/04/28 14:40:41;;;;;;;1.55;1.08;;;;;;;;;;5082450;28;20196;-62